Canones, New Mexico
Current Conditions -  °F | °C
As of 7:15 PM on Friday 19 Dec 2014 (Local Time) from KLAM Reporting Station
Clear Clear  
Wind Chill: 22°   Ceiling: Unl
Heat Index: 29°   Visibility: 10mi
Dew Point: 22°   Wind: 7mph
Humidity: 74%   Direction: 240°WSW
Pressure: 30.15"   Gusts: NA
Location:  36.19°N, 106.44°W
Report Text: KLAM 200215Z AUTO 24006KT 10SM CLR M02/M06 A3015 RMK AO2 T10171058
Loading
Personal Weather Stations






























Interactive Weather Map New forecast layout! Learn more

10-Day Weather Forecast

Advertisements
Track Severe Weather on mobile